createdAt,value
2019-05-13T00:02:24.747Z,7.30
2019-05-13T00:07:31.609Z,7.20
2019-05-13T00:12:38.302Z,7.10
2019-05-13T00:17:44.776Z,6.90
2019-05-13T00:22:53.612Z,6.90
2019-05-13T00:27:58.331Z,6.70
2019-05-13T00:33:04.155Z,6.60
2019-05-13T00:38:13.902Z,6.40
2019-05-13T00:43:19.015Z,6.30
2019-05-13T00:48:29.496Z,6.20
2019-05-13T00:53:35.366Z,6.00
2019-05-13T00:58:43.522Z,5.80
2019-05-13T01:03:48.821Z,5.60
2019-05-13T01:08:55.666Z,5.60
2019-05-13T01:14:04.089Z,5.60
2019-05-13T01:19:08.789Z,5.70
2019-05-13T01:24:15.115Z,5.90
2019-05-13T01:29:23.808Z,6.00
2019-05-13T01:34:30.814Z,6.00
2019-05-13T01:39:37.502Z,6.00
2019-05-13T01:44:43.782Z,5.90
2019-05-13T01:49:50.459Z,5.80
2019-05-13T01:54:56.791Z,5.60
2019-05-13T02:00:04.623Z,5.50
2019-05-13T02:05:09.927Z,5.40
2019-05-13T02:10:17.393Z,5.30
2019-05-13T02:15:23.262Z,5.30
2019-05-13T02:20:29.197Z,5.40
2019-05-13T02:25:35.521Z,5.50
2019-05-13T02:30:41.203Z,5.90
2019-05-13T02:35:47.007Z,6.00
2019-05-13T02:40:53.410Z,6.10
2019-05-13T02:46:03.753Z,6.00
2019-05-13T02:51:07.976Z,6.00
2019-05-13T02:56:14.303Z,6.00
2019-05-13T03:01:22.302Z,6.00
2019-05-13T03:06:28.357Z,6.00
2019-05-13T03:11:33.917Z,6.00
2019-05-13T03:17:13.023Z,6.00
2019-05-13T03:22:18.646Z,5.90
2019-05-13T03:27:25.301Z,5.90
2019-05-13T03:32:42.161Z,5.90
2019-05-13T03:37:42.349Z,5.80
2019-05-13T03:42:49.185Z,5.80
2019-05-13T03:47:56.966Z,5.90
2019-05-13T03:53:03.432Z,5.80
2019-05-13T03:58:12.832Z,5.80
2019-05-13T04:03:18.242Z,5.80
2019-05-13T04:08:24.658Z,5.80
2019-05-13T04:13:33.133Z,5.80
2019-05-13T04:18:39.005Z,5.80
2019-05-13T04:23:44.976Z,5.90
2019-05-13T04:28:52.594Z,5.90
2019-05-13T04:34:02.192Z,6.00
2019-05-13T04:39:08.161Z,6.10
2019-05-13T04:44:13.849Z,6.20
2019-05-13T04:49:22.996Z,6.30
2019-05-13T04:54:27.776Z,6.30
2019-05-13T04:59:39.505Z,6.40
2019-05-13T05:05:07.333Z,6.40
2019-05-13T05:10:38.880Z,6.40
2019-05-13T05:16:05.266Z,6.40
2019-05-13T05:21:21.666Z,6.70
2019-05-13T05:27:04.394Z,6.90
2019-05-13T05:32:39.291Z,7.20
2019-05-13T05:38:15.178Z,7.30
2019-05-13T05:43:22.404Z,7.50
2019-05-13T05:48:31.503Z,7.60
2019-05-13T05:53:42.319Z,7.70
2019-05-13T05:58:52.369Z,7.80
2019-05-13T06:04:02.117Z,8.00
2019-05-13T06:09:08.255Z,8.10
2019-05-13T06:14:14.539Z,8.20
2019-05-13T06:19:22.525Z,8.30
2019-05-13T06:24:31.267Z,8.30
2019-05-13T06:29:37.538Z,8.50
2019-05-13T06:34:44.862Z,8.60
2019-05-13T06:39:51.501Z,8.60
2019-05-13T06:44:58.561Z,8.80
2019-05-13T06:50:05.263Z,9.10
2019-05-13T06:55:12.269Z,9.10
2019-05-13T07:00:21.559Z,9.20
2019-05-13T07:05:42.311Z,9.40
2019-05-13T07:10:47.971Z,9.90
2019-05-13T07:15:53.451Z,9.80
2019-05-13T07:20:59.006Z,10.10
2019-05-13T07:26:05.597Z,10.10
2019-05-13T07:31:11.568Z,10.20
2019-05-13T07:36:18.070Z,10.70
2019-05-13T07:41:35.325Z,10.60
2019-05-13T07:46:32.870Z,10.80
2019-05-13T07:51:41.730Z,11.10
2019-05-13T07:56:46.839Z,11.00
2019-05-13T08:01:56.217Z,11.20
2019-05-13T08:07:02.394Z,11.60
2019-05-13T08:12:10.936Z,11.80
2019-05-13T08:17:16.421Z,11.80
2019-05-13T08:22:22.327Z,11.00
2019-05-13T08:27:30.779Z,11.70
2019-05-13T08:32:36.518Z,12.00
2019-05-13T08:37:43.240Z,12.80
2019-05-13T08:42:51.995Z,13.40
2019-05-13T08:47:58.589Z,13.00
2019-05-13T08:53:04.545Z,12.90
2019-05-13T08:58:12.248Z,13.20
2019-05-13T09:03:18.023Z,13.00
2019-05-13T09:08:25.490Z,12.90
2019-05-13T09:13:33.006Z,13.10
2019-05-13T09:18:42.438Z,12.70
2019-05-13T09:23:48.435Z,12.50
2019-05-13T09:28:54.854Z,12.40
2019-05-13T09:34:01.464Z,12.90
2019-05-13T09:39:08.376Z,13.60
2019-05-13T09:44:14.962Z,13.80
2019-05-13T09:49:23.706Z,14.10
2019-05-13T09:54:32.849Z,13.60
2019-05-13T09:59:38.556Z,14.00
2019-05-13T10:04:45.529Z,13.00
2019-05-13T10:09:52.569Z,12.90
2019-05-13T10:15:01.742Z,13.00
2019-05-13T10:20:07.732Z,12.80
2019-05-13T10:25:16.218Z,12.60
2019-05-13T10:30:21.865Z,13.40
2019-05-13T10:35:27.646Z,13.60
2019-05-13T10:40:34.359Z,13.10
2019-05-13T10:45:48.065Z,13.80
2019-05-13T10:50:56.734Z,13.20
2019-05-13T10:56:03.509Z,13.20
2019-05-13T11:01:11.601Z,13.00
2019-05-13T11:06:18.460Z,12.70
2019-05-13T11:11:23.855Z,12.40
2019-05-13T11:16:30.180Z,12.30
2019-05-13T11:21:36.985Z,12.30
2019-05-13T11:26:43.505Z,12.00
2019-05-13T11:31:52.108Z,11.90
2019-05-13T11:36:56.427Z,12.00
2019-05-13T11:42:03.639Z,12.30
2019-05-13T11:47:12.716Z,12.50
2019-05-13T11:52:19.296Z,12.60
2019-05-13T11:57:24.947Z,13.50
2019-05-13T12:02:32.706Z,13.40
2019-05-13T12:07:38.534Z,12.90
2019-05-13T12:12:46.458Z,13.30
2019-05-13T12:17:53.051Z,13.80
2019-05-13T12:23:03.210Z,14.10
2019-05-13T12:28:08.349Z,13.30
2019-05-13T12:33:14.845Z,12.70
2019-05-13T12:38:22.599Z,12.80
2019-05-13T12:43:28.362Z,13.20
2019-05-13T12:48:35.523Z,13.80
2019-05-13T12:53:43.415Z,13.40
2019-05-13T12:58:52.081Z,12.70
2019-05-13T13:03:58.470Z,12.50
2019-05-13T13:09:06.567Z,12.30
2019-05-13T13:14:15.354Z,12.20
2019-05-13T13:19:22.057Z,12.50
2019-05-13T13:24:28.596Z,12.70
2019-05-13T13:29:34.714Z,13.60
2019-05-13T13:34:43.886Z,14.40
2019-05-13T13:39:48.724Z,15.20
2019-05-13T13:44:54.531Z,15.40
2019-05-13T13:50:00.636Z,15.50
2019-05-13T13:55:08.996Z,15.40
2019-05-13T14:00:31.715Z,14.10
2019-05-13T14:05:24.708Z,13.10
2019-05-13T14:10:31.878Z,13.00
2019-05-13T14:15:38.521Z,13.10
2019-05-13T14:20:44.084Z,13.20
2019-05-13T14:25:52.107Z,16.30
2019-05-13T14:30:56.918Z,20.30
2019-05-13T14:36:03.363Z,18.80
2019-05-13T14:41:12.424Z,15.50
2019-05-13T14:46:18.005Z,14.20
2019-05-13T14:51:24.747Z,14.00
2019-05-13T14:56:32.385Z,14.20
2019-05-13T15:01:41.184Z,14.80
2019-05-13T15:06:47.208Z,17.10
2019-05-13T15:11:54.141Z,19.50
2019-05-13T15:17:06.886Z,19.80
2019-05-13T15:22:10.965Z,16.30
2019-05-13T15:27:17.683Z,14.40
2019-05-13T15:32:23.314Z,14.10
2019-05-13T15:37:28.871Z,15.60
2019-05-13T15:42:34.704Z,17.10
2019-05-13T15:47:41.171Z,16.00
2019-05-13T15:52:47.676Z,15.00
2019-05-13T15:57:54.215Z,14.60
2019-05-13T16:03:01.581Z,16.50
2019-05-13T16:08:07.625Z,19.80
2019-05-13T16:13:13.239Z,18.00
2019-05-13T16:18:22.055Z,15.20
2019-05-13T16:23:27.166Z,14.00
2019-05-13T16:28:33.098Z,14.70
2019-05-13T16:33:41.699Z,18.10
2019-05-13T16:38:48.264Z,19.20
2019-05-13T16:43:55.629Z,20.70
2019-05-13T16:49:12.072Z,20.30
2019-05-13T16:54:18.762Z,16.60
2019-05-13T16:59:26.019Z,14.40
2019-05-13T17:04:32.227Z,13.90
2019-05-13T17:09:37.844Z,13.60
2019-05-13T17:14:43.762Z,13.50
2019-05-13T17:19:53.537Z,13.60
2019-05-13T17:24:58.065Z,13.70
2019-05-13T17:30:03.980Z,13.60
2019-05-13T17:35:12.777Z,13.50
2019-05-13T17:40:18.269Z,13.30
2019-05-13T17:45:24.270Z,13.10
2019-05-13T17:50:31.511Z,12.90
2019-05-13T17:55:37.944Z,12.70
2019-05-13T18:00:43.365Z,12.60
2019-05-13T18:05:51.313Z,12.70
2019-05-13T18:10:56.201Z,12.70
2019-05-13T18:16:03.974Z,12.70
2019-05-13T18:21:11.817Z,12.50
2019-05-13T18:26:18.423Z,12.40
2019-05-13T18:31:25.293Z,12.30
2019-05-13T18:36:31.964Z,12.20
2019-05-13T18:41:37.511Z,12.00
2019-05-13T18:46:44.367Z,12.00
2019-05-13T18:51:51.244Z,11.90
2019-05-13T18:56:57.640Z,11.70
2019-05-13T19:02:03.316Z,11.30
2019-05-13T19:07:09.671Z,10.90
2019-05-13T19:12:17.190Z,10.80
2019-05-13T19:17:22.704Z,10.60
2019-05-13T19:22:28.266Z,10.30
2019-05-13T19:27:33.863Z,10.20
2019-05-13T19:32:41.621Z,10.10
2019-05-13T19:37:47.719Z,10.10
2019-05-13T19:42:54.368Z,9.90
2019-05-13T19:48:01.352Z,9.60
2019-05-13T19:53:07.964Z,9.40
2019-05-13T19:58:13.568Z,9.10
2019-05-13T20:03:22.593Z,8.90
2019-05-13T20:08:28.786Z,8.70
2019-05-13T20:13:35.519Z,8.60
2019-05-13T20:18:42.510Z,8.60
2019-05-13T20:23:51.752Z,8.60
2019-05-13T20:28:58.203Z,8.50
2019-05-13T20:34:05.159Z,8.50
2019-05-13T20:39:11.705Z,8.60
2019-05-13T20:44:18.062Z,8.60
2019-05-13T20:49:24.701Z,8.60
2019-05-13T20:54:31.576Z,8.60
2019-05-13T20:59:38.177Z,8.70
2019-05-13T21:04:45.253Z,8.70
2019-05-13T21:09:51.680Z,8.70
2019-05-13T21:14:57.272Z,8.60
2019-05-13T21:20:18.274Z,8.50
2019-05-13T21:25:11.105Z,8.20
2019-05-13T21:30:16.713Z,8.10
2019-05-13T21:35:22.230Z,8.00
2019-05-13T21:40:28.896Z,7.80
2019-05-13T21:45:34.778Z,7.60
2019-05-13T21:50:41.572Z,7.30
2019-05-13T21:55:46.932Z,7.00
2019-05-13T22:00:53.107Z,6.70
2019-05-13T22:05:59.097Z,6.70
2019-05-13T22:11:05.794Z,6.70
2019-05-13T22:16:12.181Z,6.70
2019-05-13T22:21:18.860Z,7.00
2019-05-13T22:26:25.544Z,6.90
2019-05-13T22:31:31.996Z,6.80
2019-05-13T22:36:38.330Z,6.80
2019-05-13T22:41:44.102Z,6.70
2019-05-13T22:46:51.718Z,6.50
2019-05-13T22:51:58.806Z,6.50
2019-05-13T22:57:05.281Z,6.90
2019-05-13T23:02:12.010Z,7.70
2019-05-13T23:07:18.935Z,7.90
2019-05-13T23:12:24.488Z,8.20
2019-05-13T23:17:31.985Z,8.20
2019-05-13T23:22:37.773Z,8.20
2019-05-13T23:27:44.337Z,8.10
2019-05-13T23:32:51.743Z,8.00
2019-05-13T23:37:59.040Z,8.00
2019-05-13T23:43:04.751Z,7.90
2019-05-13T23:48:11.053Z,8.00
2019-05-13T23:53:17.615Z,7.90
2019-05-13T23:58:23.144Z,7.90
